Time;durP1;ratioP1;P1;durP2;ratioP2;P2;SDS_P1;SDS_P2;PMS_P1;PMS_P2;Temp;Humidity;BMP_temperature;BMP_pressure;BME280_temperature;BME280_humidity;BME280_pressure;Samples;Min_cycle;Max_cycle;Signal;HPM_P1;HPM_P2
2022/09/05 00:02:01;;;;;;;8.67;7.77;;;21.20;45.30;;;;;;5075171;28;20450;-42
2022/09/05 00:04:48;;;;;;;8.60;7.80;;;21.30;45.40;;;;;;5075338;28;20422;-41
2022/09/05 00:07:22;;;;;;;9.70;7.80;;;21.20;45.50;;;;;;5075091;28;20248;-42
2022/09/05 00:10:15;;;;;;;10.00;7.97;;;21.20;45.50;;;;;;5075324;28;20406;-42
2022/09/05 00:12:41;;;;;;;8.97;8.13;;;21.20;45.50;;;;;;5075452;28;20743;-42
2022/09/05 00:15:22;;;;;;;10.07;8.33;;;21.10;45.60;;;;;;5075421;28;20398;-41
2022/09/05 00:17:57;;;;;;;9.73;8.67;;;21.10;45.70;;;;;;5074836;28;20607;-42
2022/09/05 00:21:02;;;;;;;12.57;7.10;;;21.10;45.70;;;;;;5074825;28;20473;-42
2022/09/05 00:23:58;;;;;;;8.43;7.50;;;21.10;45.90;;;;;;5075251;28;20387;-43
2022/09/05 00:26:29;;;;;;;8.73;7.57;;;21.00;45.80;;;;;;5053580;28;20775;-41
2022/09/05 00:29:23;;;;;;;8.13;7.33;;;21.00;45.70;;;;;;5075096;28;20407;-42
2022/09/05 00:32:20;;;;;;;8.40;7.57;;;21.00;45.90;;;;;;5074683;28;20949;-43
2022/09/05 00:34:49;;;;;;;8.50;7.47;;;20.90;45.80;;;;;;5075052;28;20457;-41
2022/09/05 00:37:45;;;;;;;9.93;7.43;;;20.90;45.90;;;;;;5074791;28;20972;-43
2022/09/05 00:40:32;;;;;;;7.37;6.67;;;20.90;46.00;;;;;;5074754;28;20415;-42
2022/09/05 00:43:04;;;;;;;8.20;7.50;;;20.90;45.80;;;;;;5074548;28;20504;-42
2022/09/05 00:45:38;;;;;;;8.37;7.40;;;20.90;45.90;;;;;;5074458;28;20391;-43
2022/09/05 00:48:23;;;;;;;8.70;7.40;;;20.90;45.90;;;;;;5074671;28;20426;-42
2022/09/05 00:51:37;;;;;;;9.10;8.20;;;20.90;45.70;;;;;;5074404;28;20418;-42
2022/09/05 00:54:17;;;;;;;8.13;7.30;;;20.80;45.70;;;;;;4973456;28;20568;-42
2022/09/05 00:57:31;;;;;;;10.50;9.40;;;20.70;46.10;;;;;;5071810;28;20411;-41
2022/09/05 01:00:16;;;;;;;8.07;7.30;;;20.70;46.40;;;;;;4973145;28;20462;-42
2022/09/05 01:03:08;;;;;;;8.87;8.03;;;20.60;46.40;;;;;;4973210;28;20463;-41
2022/09/05 01:05:45;;;;;;;8.67;7.77;;;20.60;46.40;;;;;;4972954;28;20448;-41
2022/09/05 01:08:29;;;;;;;11.10;7.17;;;20.60;46.40;;;;;;4973173;28;20418;-42
2022/09/05 01:11:27;;;;;;;7.27;6.57;;;20.60;46.50;;;;;;4973138;28;21060;-41
2022/09/05 01:14:20;;;;;;;8.90;8.10;;;20.60;46.50;;;;;;4973042;28;20431;-40
2022/09/05 01:17:10;;;;;;;8.57;7.67;;;20.60;46.40;;;;;;4972788;28;20410;-42
2022/09/05 01:19:45;;;;;;;8.87;7.97;;;20.60;46.40;;;;;;4972959;28;20938;-42
2022/09/05 01:22:34;;;;;;;9.83;8.87;;;20.50;46.60;;;;;;4972674;28;20466;-41
2022/09/05 01:25:31;;;;;;;8.37;7.50;;;20.50;46.70;;;;;;4972890;28;20407;-42
2022/09/05 01:28:03;;;;;;;8.20;7.40;;;20.40;46.80;;;;;;4972854;28;20428;-41
2022/09/05 01:30:39;;;;;;;9.43;8.53;;;20.30;46.70;;;;;;5019818;28;20523;-40
2022/09/05 01:33:34;;;;;;;11.73;7.53;;;20.30;46.90;;;;;;5073650;28;20804;-42
2022/09/05 01:36:21;;;;;;;9.90;7.50;;;20.40;47.00;;;;;;5073448;28;20732;-41
2022/09/05 01:38:47;;;;;;;8.83;7.40;;;20.40;46.80;;;;;;5073596;28;20452;-41
2022/09/05 01:42:03;;;;;;;7.70;7.00;;;20.40;46.90;;;;;;5073245;28;20454;-41
2022/09/05 01:44:28;;;;;;;8.83;7.50;;;20.40;46.90;;;;;;5052160;28;20184;-41
2022/09/05 01:47:03;;;;;;;10.53;8.30;;;20.30;47.00;;;;;;5073219;28;20452;-43
2022/09/05 01:49:54;;;;;;;8.27;7.57;;;20.30;47.30;;;;;;5073281;28;20152;-41
2022/09/05 01:52:57;;;;;;;9.87;8.87;;;20.30;47.30;;;;;;5073351;28;20407;-41
2022/09/05 01:56:01;;;;;;;8.53;7.60;;;20.30;47.30;;;;;;5073283;28;20430;-41
2022/09/05 01:59:00;;;;;;;9.77;8.80;;;20.30;47.40;;;;;;5037493;28;20903;-42
2022/09/05 02:01:49;;;;;;;8.80;7.50;;;20.30;47.50;;;;;;5073237;28;20458;-43
2022/09/05 02:04:58;;;;;;;8.47;7.63;;;20.20;47.70;;;;;;5073112;28;20157;-42
2022/09/05 02:07:36;;;;;;;9.60;8.53;;;20.20;47.60;;;;;;5072861;28;21010;-40
2022/09/05 02:10:32;;;;;;;8.23;7.33;;;20.20;47.60;;;;;;5072875;28;20386;-40
2022/09/05 02:13:22;;;;;;;8.02;7.05;;;20.20;47.70;;;;;;5072890;28;20391;-41
2022/09/05 02:15:59;;;;;;;8.07;7.38;;;20.10;47.80;;;;;;5071844;28;20564;-42
2022/09/05 02:18:51;;;;;;;8.80;7.22;;;20.20;47.90;;;;;;5072778;28;20250;-42
2022/09/05 02:21:27;;;;;;;9.10;8.20;;;20.20;47.80;;;;;;5072617;28;20588;-40
2022/09/05 02:24:19;;;;;;;12.10;7.90;;;20.20;47.80;;;;;;5072769;28;20165;-42
2022/09/05 02:26:53;;;;;;;7.93;7.15;;;20.20;47.80;;;;;;5072405;28;20406;-42
2022/09/05 02:29:29;;;;;;;8.73;7.90;;;20.20;47.60;;;;;;5072974;28;20684;-42
2022/09/05 02:32:02;;;;;;;9.43;8.48;;;20.20;47.70;;;;;;5073237;28;20426;-41
2022/09/05 02:34:50;;;;;;;9.40;8.50;;;20.20;47.80;;;;;;5073369;28;20635;-42
2022/09/05 02:37:48;;;;;;;9.63;8.60;;;20.20;47.80;;;;;;5072936;28;20433;-42
2022/09/05 02:40:22;;;;;;;10.07;7.73;;;20.20;47.80;;;;;;5072371;28;20922;-40
2022/09/05 02:43:10;;;;;;;9.20;8.30;;;20.10;47.90;;;;;;5072225;28;20806;-42
2022/09/05 02:46:13;;;;;;;8.88;8.07;;;20.00;47.90;;;;;;5072109;28;20486;-41
2022/09/05 02:49:06;;;;;;;8.45;7.68;;;20.00;48.10;;;;;;5072596;28;20183;-40
2022/09/05 02:51:44;;;;;;;12.57;7.95;;;20.00;48.20;;;;;;5072313;28;20295;-42
2022/09/05 02:54:18;;;;;;;10.25;9.25;;;20.00;48.40;;;;;;5072228;28;20724;-40
2022/09/05 02:57:12;;;;;;;9.82;8.80;;;20.00;48.40;;;;;;5071955;28;20259;-43
2022/09/05 03:00:05;;;;;;;9.15;8.35;;;20.00;48.20;;;;;;5072301;28;20231;-42
2022/09/05 03:03:05;;;;;;;8.70;7.93;;;20.00;48.10;;;;;;5059459;28;20741;-41
2022/09/05 03:05:43;;;;;;;9.10;8.20;;;20.00;48.10;;;;;;5072062;28;20168;-42
2022/09/05 03:08:36;;;;;;;9.20;7.90;;;19.90;47.90;;;;;;5072348;28;20156;-42
2022/09/05 03:11:26;;;;;;;9.20;8.30;;;20.00;47.80;;;;;;5072093;28;20287;-42
2022/09/05 03:14:07;;;;;;;14.55;8.65;;;20.00;47.70;;;;;;5072018;28;20172;-42
2022/09/05 03:17:12;;;;;;;12.77;8.73;;;19.90;47.70;;;;;;5071819;28;20167;-42
2022/09/05 03:19:53;;;;;;;11.88;8.25;;;19.80;47.60;;;;;;5072180;28;20226;-42
2022/09/05 03:22:37;;;;;;;9.35;8.45;;;19.70;47.70;;;;;;5071961;28;20191;-42
2022/09/05 03:25:18;;;;;;;9.73;7.55;;;19.70;47.70;;;;;;5072083;28;20160;-42
2022/09/05 03:28:21;;;;;;;9.32;8.38;;;19.70;47.90;;;;;;5074723;28;20532;-41
2022/09/05 03:30:52;;;;;;;9.32;8.00;;;19.70;47.80;;;;;;5075936;28;20651;-42
2022/09/05 03:33:36;;;;;;;9.93;8.70;;;19.70;47.70;;;;;;5076104;28;20652;-41
2022/09/05 03:36:20;;;;;;;10.27;8.90;;;19.70;48.40;;;;;;5075785;28;20172;-42
2022/09/05 03:39:17;;;;;;;8.60;7.70;;;19.70;47.80;;;;;;5076032;28;20176;-42
2022/09/05 03:42:20;;;;;;;9.13;8.23;;;19.60;47.80;;;;;;5075642;28;20380;-42
2022/09/05 03:45:14;;;;;;;12.45;9.32;;;19.60;47.80;;;;;;5076071;28;20180;-40
2022/09/05 03:47:55;;;;;;;9.27;8.30;;;19.60;47.90;;;;;;5072663;28;20187;-41
2022/09/05 03:50:35;;;;;;;9.30;8.40;;;19.50;48.00;;;;;;5075544;28;20423;-42
2022/09/05 03:53:33;;;;;;;10.65;9.30;;;19.60;48.00;;;;;;5075771;28;20425;-41
2022/09/05 03:56:14;;;;;;;9.77;8.73;;;19.60;48.00;;;;;;5075219;28;20753;-40
2022/09/05 03:58:54;;;;;;;8.67;7.77;;;19.60;47.80;;;;;;5075466;28;20963;-41
2022/09/05 04:01:43;;;;;;;10.90;9.05;;;19.50;48.00;;;;;;5075416;28;20496;-42
2022/09/05 04:04:32;;;;;;;9.90;8.90;;;19.60;47.80;;;;;;5075410;28;20721;-42
2022/09/05 04:07:03;;;;;;;11.07;8.48;;;19.60;47.80;;;;;;5074971;28;20255;-41
2022/09/05 04:10:12;;;;;;;15.20;9.10;;;19.60;47.80;;;;;;5075286;28;20171;-41
2022/09/05 04:12:58;;;;;;;10.25;8.75;;;19.60;47.80;;;;;;5075451;28;20252;-41
2022/09/05 04:15:43;;;;;;;10.85;8.60;;;19.60;47.60;;;;;;5075033;28;20628;-41
2022/09/05 04:18:32;;;;;;;11.68;9.75;;;19.60;47.60;;;;;;5075376;28;20184;-41
2022/09/05 04:21:11;;;;;;;9.25;7.07;;;19.60;47.60;;;;;;5074997;28;20295;-42
2022/09/05 04:24:21;;;;;;;14.95;9.30;;;19.60;47.60;;;;;;5074958;28;20167;-42
2022/09/05 04:27:05;;;;;;;10.73;9.68;;;19.60;47.60;;;;;;4973720;28;20183;-42
2022/09/05 04:29:48;;;;;;;11.15;10.02;;;19.60;47.80;;;;;;4973938;28;20156;-42
2022/09/05 04:32:39;;;;;;;10.35;8.13;;;19.50;47.80;;;;;;4973861;28;20266;-41
2022/09/05 04:35:24;;;;;;;11.48;9.07;;;19.60;48.00;;;;;;4973884;28;20751;-42
2022/09/05 04:38:14;;;;;;;13.05;10.10;;;19.60;47.90;;;;;;4973026;28;20188;-42
2022/09/05 04:40:45;;;;;;;9.88;8.93;;;19.50;47.90;;;;;;4973619;28;20592;-41
2022/09/05 04:43:19;;;;;;;9.80;8.80;;;19.50;48.10;;;;;;4973582;28;20180;-40
2022/09/05 04:45:59;;;;;;;11.50;10.40;;;19.50;48.10;;;;;;4973504;28;20182;-40
2022/09/05 04:48:35;;;;;;;11.00;9.90;;;19.50;48.20;;;;;;4974356;28;20164;-41
2022/09/05 04:51:08;;;;;;;13.27;10.10;;;19.50;48.30;;;;;;4973564;28;20604;-42
2022/09/05 04:54:17;;;;;;;18.65;11.95;;;19.50;48.60;;;;;;4973422;28;20541;-41
2022/09/05 04:56:49;;;;;;;15.07;9.63;;;19.50;48.50;;;;;;4946457;28;20579;-42
2022/09/05 04:59:31;;;;;;;12.25;10.27;;;19.40;48.50;;;;;;5067537;28;20211;-41
2022/09/05 05:02:18;;;;;;;12.30;11.10;;;19.50;48.90;;;;;;5074240;28;20235;-42
2022/09/05 05:04:44;;;;;;;12.65;10.20;;;19.50;48.90;;;;;;5074580;28;20379;-42
2022/09/05 05:07:24;;;;;;;11.32;10.13;;;19.50;48.90;;;;;;5074029;28;20165;-42
2022/09/05 05:10:00;;;;;;;15.00;10.27;;;19.50;49.10;;;;;;5074139;28;20192;-41
2022/09/05 05:12:46;;;;;;;12.03;10.80;;;19.60;49.00;;;;;;5074128;28;20403;-42
2022/09/05 05:15:17;;;;;;;17.92;10.05;;;19.60;48.90;;;;;;5073791;28;20476;-41
2022/09/05 05:17:52;;;;;;;14.63;10.15;;;19.70;48.80;;;;;;5073821;28;20184;-42
2022/09/05 05:20:53;;;;;;;15.60;10.48;;;19.70;48.80;;;;;;5073871;28;20211;-42
2022/09/05 05:23:42;;;;;;;15.93;11.07;;;19.80;48.90;;;;;;5052023;28;20689;-42
2022/09/05 05:26:20;;;;;;;14.40;10.60;;;19.80;48.90;;;;;;5073643;28;20517;-42
2022/09/05 05:29:22;;;;;;;14.90;11.10;;;19.80;49.10;;;;;;5073871;28;20165;-42
2022/09/05 05:31:53;;;;;;;12.90;11.60;;;19.80;49.30;;;;;;4972659;28;20752;-42
2022/09/05 05:34:33;;;;;;;17.23;12.27;;;19.90;49.20;;;;;;5056520;28;20176;-42
2022/09/05 05:37:13;;;;;;;14.20;12.32;;;19.90;49.40;;;;;;5073893;28;20327;-42
2022/09/05 05:39:49;;;;;;;22.83;10.98;;;20.00;49.30;;;;;;5073812;28;20157;-41
2022/09/05 05:42:23;;;;;;;14.97;11.40;;;20.10;49.10;;;;;;5073345;28;20287;-40
2022/09/05 05:44:52;;;;;;;13.63;11.15;;;20.20;49.00;;;;;;5073387;28;20407;-41
2022/09/05 05:47:27;;;;;;;13.88;10.10;;;20.30;49.00;;;;;;5073435;28;20238;-43
2022/09/05 05:49:56;;;;;;;20.20;12.20;;;20.40;48.90;;;;;;5072572;28;20163;-40
2022/09/05 05:52:39;;;;;;;15.38;10.52;;;20.40;49.70;;;;;;5073217;28;20410;-42
2022/09/05 05:55:29;;;;;;;16.17;11.77;;;20.60;49.10;;;;;;5073391;28;20252;-42
2022/09/05 05:58:47;;;;;;;16.27;11.00;;;20.70;49.30;;;;;;5073116;28;20756;-41
2022/09/05 06:01:25;;;;;;;14.95;11.88;;;20.70;49.20;;;;;;5067895;28;20454;-42
2022/09/05 06:04:03;;;;;;;14.50;12.90;;;20.70;49.10;;;;;;5073497;28;20172;-40
2022/09/05 06:06:50;;;;;;;16.93;12.93;;;20.90;49.10;;;;;;5072807;28;20452;-42
2022/09/05 06:09:37;;;;;;;15.83;12.13;;;20.90;49.10;;;;;;5073021;28;20407;-41
2022/09/05 06:12:35;;;;;;;14.27;12.77;;;20.90;49.10;;;;;;5072751;28;20484;-41
2022/09/05 06:15:25;;;;;;;12.20;10.80;;;21.00;49.00;;;;;;5058621;28;20426;-42
2022/09/05 06:18:18;;;;;;;14.67;11.83;;;21.10;49.00;;;;;;5072826;28;20375;-42
2022/09/05 06:21:18;;;;;;;14.43;12.93;;;21.20;48.70;;;;;;5054731;28;20455;-43
2022/09/05 06:24:30;;;;;;;17.07;12.80;;;21.30;48.60;;;;;;5072725;28;20899;-41
2022/09/05 06:27:05;;;;;;;24.40;15.27;;;21.40;48.50;;;;;;5072383;28;20395;-41
2022/09/05 06:29:40;;;;;;;13.87;12.33;;;21.40;48.50;;;;;;5072683;28;20398;-43
2022/09/05 06:32:11;;;;;;;14.20;12.80;;;21.50;48.50;;;;;;5072489;28;20422;-42
2022/09/05 06:34:58;;;;;;;13.40;12.10;;;21.50;48.40;;;;;;5072575;28;20436;-42
2022/09/05 06:37:33;;;;;;;14.63;12.03;;;21.70;48.30;;;;;;5072396;28;20405;-41
2022/09/05 06:40:25;;;;;;;16.73;13.83;;;21.70;48.30;;;;;;5072461;28;20456;-43
2022/09/05 06:43:03;;;;;;;15.00;13.50;;;21.80;48.40;;;;;;5054695;28;20454;-42
2022/09/05 06:45:35;;;;;;;16.67;13.60;;;21.80;48.40;;;;;;5072529;28;20435;-43
2022/09/05 06:48:13;;;;;;;15.93;14.27;;;21.90;48.60;;;;;;5072350;28;20921;-41
2022/09/05 06:50:49;;;;;;;16.80;13.40;;;22.00;48.40;;;;;;5072626;28;20977;-42
2022/09/05 06:53:44;;;;;;;13.43;11.53;;;22.10;48.20;;;;;;5072366;28;20407;-40
2022/09/05 06:56:13;;;;;;;14.90;13.40;;;22.20;48.50;;;;;;5061642;28;20414;-41
2022/09/05 06:58:58;;;;;;;14.17;12.77;;;22.40;48.30;;;;;;5072219;28;20419;-42
2022/09/05 07:01:32;;;;;;;13.57;11.93;;;22.50;48.20;;;;;;5071714;28;20453;-42
2022/09/05 07:04:37;;;;;;;17.70;13.10;;;22.50;48.20;;;;;;5072024;28;20403;-42
2022/09/05 07:07:32;;;;;;;15.00;13.60;;;22.70;48.30;;;;;;5072142;28;20375;-42
2022/09/05 07:10:24;;;;;;;17.47;15.60;;;22.80;48.30;;;;;;5069091;28;20446;-43
2022/09/05 07:12:58;;;;;;;13.13;11.83;;;22.90;48.50;;;;;;5058632;28;20490;-43
2022/09/05 07:15:37;;;;;;;11.60;10.40;;;23.10;48.80;;;;;;5072065;28;20395;-40
2022/09/05 07:18:11;;;;;;;13.40;12.00;;;23.30;48.60;;;;;;5071986;28;20785;-40
2022/09/05 07:20:51;;;;;;;12.63;11.17;;;23.40;48.60;;;;;;5071760;28;20972;-41
2022/09/05 07:23:26;;;;;;;14.30;11.47;;;23.60;49.20;;;;;;5071897;28;20507;-41
2022/09/05 07:25:54;;;;;;;13.57;12.13;;;23.70;48.50;;;;;;5071662;28;20493;-41
2022/09/05 07:28:21;;;;;;;12.77;11.50;;;23.90;48.50;;;;;;5071975;28;20402;-41
2022/09/05 07:30:50;;;;;;;12.50;11.20;;;24.00;48.30;;;;;;5072055;28;20422;-42
2022/09/05 07:33:22;;;;;;;13.47;10.97;;;24.10;48.30;;;;;;5071723;28;20486;-43
2022/09/05 07:35:50;;;;;;;12.27;11.17;;;24.20;48.10;;;;;;5071879;28;20493;-43
2022/09/05 07:38:29;;;;;;;14.27;11.37;;;24.30;47.80;;;;;;5071905;28;20919;-41
2022/09/05 07:41:01;;;;;;;12.30;11.10;;;24.40;48.10;;;;;;5071944;28;20457;-41
2022/09/05 07:43:39;;;;;;;12.77;11.60;;;24.50;47.40;;;;;;5071969;28;20491;-42
2022/09/05 07:46:16;;;;;;;12.80;11.50;;;24.60;47.20;;;;;;5072168;28;20387;-43
2022/09/05 07:48:58;;;;;;;13.50;12.13;;;24.70;47.20;;;;;;5072380;28;20382;-42
2022/09/05 07:51:28;;;;;;;15.07;12.90;;;24.80;47.20;;;;;;5072641;28;20418;-42
2022/09/05 07:54:17;;;;;;;13.90;12.37;;;24.80;46.50;;;;;;5072249;28;20399;-42
2022/09/05 07:56:44;;;;;;;13.13;11.80;;;24.90;46.90;;;;;;5071037;28;20445;-41
2022/09/05 07:59:13;;;;;;;13.90;11.80;;;24.90;46.90;;;;;;5071786;28;20419;-42
2022/09/05 08:01:43;;;;;;;13.03;11.60;;;25.00;46.50;;;;;;5071439;28;20479;-42
2022/09/05 08:04:21;;;;;;;13.10;11.90;;;25.20;46.60;;;;;;5071834;28;20478;-43
2022/09/05 08:06:51;;;;;;;13.57;12.07;;;25.30;46.10;;;;;;5053331;28;20473;-43
2022/09/05 08:09:24;;;;;;;12.37;11.27;;;25.30;45.90;;;;;;5071794;28;20772;-42
2022/09/05 08:11:58;;;;;;;13.60;12.30;;;25.40;45.90;;;;;;5071518;28;20431;-43
2022/09/05 08:14:52;;;;;;;13.60;11.10;;;25.40;45.80;;;;;;5073758;28;20890;-41
2022/09/05 08:17:24;;;;;;;13.70;11.23;;;25.50;45.60;;;;;;5074999;28;20411;-42
2022/09/05 08:20:06;;;;;;;13.60;12.20;;;25.50;45.80;;;;;;5074989;28;20403;-41
2022/09/05 08:22:44;;;;;;;14.47;12.30;;;25.60;45.20;;;;;;5075124;28;20493;-41
2022/09/05 08:25:31;;;;;;;12.27;10.20;;;25.70;45.50;;;;;;5075188;28;20395;-42
2022/09/05 08:28:19;;;;;;;11.93;10.63;;;25.80;45.20;;;;;;5074885;28;20497;-42
2022/09/05 08:30:54;;;;;;;13.23;11.83;;;25.80;44.40;;;;;;5074891;28;20925;-42
2022/09/05 08:33:24;;;;;;;12.07;10.87;;;25.90;44.80;;;;;;5074824;28;20406;-43
2022/09/05 08:35:55;;;;;;;17.00;11.50;;;25.90;44.70;;;;;;5074546;28;20403;-42
2022/09/05 08:38:21;;;;;;;13.90;12.60;;;25.90;44.60;;;;;;5074840;28;20403;-41
2022/09/05 08:40:55;;;;;;;12.03;10.90;;;26.00;45.00;;;;;;5074805;28;20434;-42
2022/09/05 08:43:27;;;;;;;11.80;10.60;;;26.10;44.80;;;;;;5074564;28;20431;-41
2022/09/05 08:46:01;;;;;;;11.90;10.80;;;26.20;45.00;;;;;;5074298;28;20553;-42
2022/09/05 08:49:02;;;;;;;11.97;10.90;;;26.30;45.40;;;;;;5074641;28;20974;-43
2022/09/05 08:51:38;;;;;;;10.37;9.37;;;26.30;42.40;;;;;;5060978;28;20465;-45
2022/09/05 08:54:23;;;;;;;12.00;10.83;;;26.30;44.20;;;;;;5074664;28;21125;-43
2022/09/05 08:56:58;;;;;;;12.57;11.40;;;26.40;44.20;;;;;;5074410;28;20399;-44
2022/09/05 08:59:51;;;;;;;10.97;9.90;;;26.50;43.50;;;;;;5074735;28;20422;-43
2022/09/05 09:02:43;;;;;;;11.60;10.50;;;26.60;43.90;;;;;;5074295;28;20446;-44
2022/09/05 09:05:49;;;;;;;12.20;11.10;;;26.70;42.90;;;;;;5074425;28;20739;-42
2022/09/05 09:08:19;;;;;;;15.13;11.10;;;26.70;43.70;;;;;;5074215;28;20890;-45
2022/09/05 09:10:58;;;;;;;13.60;11.23;;;26.80;43.60;;;;;;5074223;28;20876;-45
2022/09/05 09:13:53;;;;;;;11.17;9.37;;;26.90;43.20;;;;;;5074431;28;20418;-43
2022/09/05 09:16:32;;;;;;;10.80;9.70;;;27.00;43.40;;;;;;5073884;28;20500;-45
2022/09/05 09:19:03;;;;;;;11.77;10.77;;;27.10;43.80;;;;;;5074036;28;20403;-43
2022/09/05 09:21:41;;;;;;;11.33;10.33;;;27.20;43.40;;;;;;5073625;28;21117;-44
2022/09/05 09:24:28;;;;;;;10.40;9.40;;;27.30;43.50;;;;;;5073973;28;20407;-45
2022/09/05 09:27:05;;;;;;;11.47;10.27;;;27.50;43.30;;;;;;5073738;28;20478;-43
2022/09/05 09:29:37;;;;;;;10.27;9.27;;;27.50;43.10;;;;;;5073779;28;20895;-44
2022/09/05 09:32:12;;;;;;;11.03;10.03;;;27.50;42.70;;;;;;5073779;28;20419;-44
2022/09/05 09:34:50;;;;;;;12.23;11.03;;;27.60;42.60;;;;;;5073819;28;20444;-44
2022/09/05 09:37:28;;;;;;;10.40;9.40;;;27.60;42.20;;;;;;5073751;28;20399;-44
2022/09/05 09:40:49;;;;;;;11.77;10.77;;;27.60;41.50;;;;;;5073614;28;20410;-44
2022/09/05 09:43:59;;;;;;;10.17;9.27;;;27.70;40.40;;;;;;5001501;28;20466;-43
2022/09/05 09:46:40;;;;;;;11.00;9.53;;;27.70;41.80;;;;;;5047574;28;20417;-43
2022/09/05 09:49:11;;;;;;;10.00;8.83;;;27.80;40.80;;;;;;5073630;28;20414;-44
2022/09/05 09:51:46;;;;;;;10.70;9.60;;;27.90;41.80;;;;;;5073490;28;20510;-44
2022/09/05 09:54:49;;;;;;;12.10;11.00;;;28.00;41.90;;;;;;5073284;28;20456;-43
2022/09/05 09:57:52;;;;;;;9.70;8.80;;;28.20;41.50;;;;;;5073110;28;20472;-43
2022/09/05 10:00:22;;;;;;;11.27;9.33;;;28.30;41.30;;;;;;5073436;28;20430;-44
2022/09/05 10:03:03;;;;;;;10.00;9.10;;;28.40;41.40;;;;;;5073024;28;20531;-44
2022/09/05 10:05:51;;;;;;;11.03;10.13;;;28.50;41.00;;;;;;5073112;28;20451;-44
2022/09/05 10:08:31;;;;;;;9.20;8.30;;;28.60;40.90;;;;;;5073158;28;20395;-44
2022/09/05 10:11:35;;;;;;;9.30;8.30;;;28.60;41.70;;;;;;5072902;28;20429;-44
2022/09/05 10:14:19;;;;;;;9.63;8.83;;;28.60;39.40;;;;;;5072966;28;20736;-43
2022/09/05 10:16:52;;;;;;;9.87;8.20;;;28.70;40.40;;;;;;5072693;28;20406;-43
2022/09/05 10:19:32;;;;;;;9.40;8.60;;;28.80;39.80;;;;;;5072861;28;20399;-44
2022/09/05 10:22:14;;;;;;;8.83;8.03;;;28.90;40.00;;;;;;5072452;28;20539;-43
2022/09/05 10:25:14;;;;;;;9.30;8.50;;;28.90;40.30;;;;;;5072741;28;20407;-44
2022/09/05 10:28:04;;;;;;;8.97;8.03;;;29.10;40.60;;;;;;5072537;28;20403;-44
2022/09/05 10:30:48;;;;;;;10.67;8.63;;;29.10;40.20;;;;;;5072475;28;20446;-44
2022/09/05 10:33:49;;;;;;;9.00;8.10;;;29.10;40.20;;;;;;5072568;28;20457;-43
2022/09/05 10:36:31;;;;;;;9.57;7.90;;;29.20;39.70;;;;;;5016501;28;20795;-43
2022/09/05 10:39:44;;;;;;;9.03;8.10;;;29.30;39.50;;;;;;5072517;28;20880;-44
2022/09/05 10:42:26;;;;;;;8.87;8.07;;;29.30;38.60;;;;;;5067731;28;20837;-44
2022/09/05 10:44:54;;;;;;;8.17;6.23;;;29.40;38.00;;;;;;5072334;28;20746;-44
2022/09/05 10:47:34;;;;;;;7.60;6.90;;;29.50;38.00;;;;;;5072112;28;20486;-44
2022/09/05 10:50:31;;;;;;;7.57;6.77;;;29.60;38.10;;;;;;5072292;28;20921;-44
2022/09/05 10:53:01;;;;;;;6.70;6.20;;;29.60;38.10;;;;;;5072994;28;20407;-44
2022/09/05 10:55:50;;;;;;;7.40;6.67;;;29.70;37.10;;;;;;5072246;28;20441;-43
2022/09/05 10:58:33;;;;;;;8.20;7.50;;;29.80;37.40;;;;;;5072630;28;20441;-43
2022/09/05 11:01:11;;;;;;;9.90;7.90;;;29.90;38.00;;;;;;5072201;28;20419;-43
2022/09/05 11:03:46;;;;;;;7.33;6.73;;;30.10;37.60;;;;;;5072064;28;20837;-42
2022/09/05 11:06:15;;;;;;;7.10;6.40;;;30.20;37.20;;;;;;5072020;28;20750;-42
2022/09/05 11:09:11;;;;;;;7.90;7.20;;;30.30;36.90;;;;;;5072173;28;21072;-42
2022/09/05 11:11:44;;;;;;;8.03;6.97;;;30.40;37.50;;;;;;5072309;28;20423;-42
2022/09/05 11:14:29;;;;;;;8.57;7.80;;;30.40;36.90;;;;;;5072123;28;20395;-42
2022/09/05 11:17:25;;;;;;;7.73;7.10;;;30.40;36.40;;;;;;5071868;28;20809;-43
2022/09/05 11:20:02;;;;;;;8.40;7.50;;;30.40;36.30;;;;;;5066869;28;20461;-41
2022/09/05 11:22:37;;;;;;;6.57;6.07;;;30.60;37.20;;;;;;5071932;28;20470;-42
2022/09/05 11:25:18;;;;;;;6.90;6.27;;;30.60;35.40;;;;;;5072221;28;20411;-42
2022/09/05 11:27:48;;;;;;;6.20;5.70;;;30.60;33.30;;;;;;5071778;28;20406;-42
2022/09/05 11:30:18;;;;;;;6.83;6.30;;;30.60;34.70;;;;;;5072446;28;20495;-42
2022/09/05 11:32:55;;;;;;;7.47;6.87;;;30.60;33.10;;;;;;5072048;28;20405;-41
2022/09/05 11:35:25;;;;;;;7.20;6.60;;;30.50;34.80;;;;;;5071933;28;20891;-42
2022/09/05 11:38:10;;;;;;;6.83;6.17;;;30.70;34.20;;;;;;5071814;28;20398;-41
2022/09/05 11:41:12;;;;;;;5.80;5.30;;;30.80;33.40;;;;;;5071997;28;20492;-42
2022/09/05 11:44:07;;;;;;;8.37;6.23;;;30.50;32.10;;;;;;5072021;28;20454;-42
2022/09/05 11:47:01;;;;;;;6.03;5.47;;;30.20;31.90;;;;;;5071525;28;20417;-42
2022/09/05 11:49:49;;;;;;;6.20;5.70;;;29.90;32.50;;;;;;5074147;28;20436;-42
2022/09/05 11:52:33;;;;;;;6.20;5.60;;;29.80;32.20;;;;;;5075665;28;20387;-43
2022/09/05 11:55:24;;;;;;;5.80;5.30;;;29.80;31.90;;;;;;5075740;28;20407;-43
2022/09/05 11:58:20;;;;;;;5.90;5.30;;;29.70;33.30;;;;;;5075435;28;20490;-43
2022/09/05 12:01:18;;;;;;;5.60;5.10;;;29.80;33.90;;;;;;5075678;28;20837;-42
2022/09/05 12:04:13;;;;;;;6.40;5.80;;;29.70;34.20;;;;;;5075456;28;20441;-42
2022/09/05 12:07:08;;;;;;;8.40;5.70;;;29.70;34.10;;;;;;5075124;28;21112;-42
2022/09/05 12:09:58;;;;;;;6.77;6.17;;;29.60;34.00;;;;;;5075561;28;20551;-42
2022/09/05 12:12:39;;;;;;;6.50;5.90;;;29.50;34.10;;;;;;5075258;28;20926;-42
2022/09/05 12:15:25;;;;;;;6.00;5.40;;;29.50;34.80;;;;;;5075417;28;20428;-42
2022/09/05 12:18:26;;;;;;;8.00;5.73;;;29.50;35.20;;;;;;5075002;28;20465;-43
2022/09/05 12:21:05;;;;;;;6.57;5.97;;;29.50;35.00;;;;;;5074933;28;20445;-43
2022/09/05 12:23:48;;;;;;;6.30;5.03;;;29.40;35.10;;;;;;5075020;28;20445;-41
2022/09/05 12:26:29;;;;;;;8.13;6.60;;;29.40;35.60;;;;;;5074776;28;20413;-43
2022/09/05 12:29:07;;;;;;;5.77;5.20;;;29.40;35.30;;;;;;5074988;28;20403;-42
2022/09/05 12:31:39;;;;;;;6.00;5.50;;;29.40;35.70;;;;;;5075111;28;20428;-42
2022/09/05 12:34:11;;;;;;;6.30;5.70;;;29.40;35.70;;;;;;5075085;28;20407;-43
2022/09/05 12:36:40;;;;;;;6.57;5.87;;;29.30;35.60;;;;;;5074611;28;20924;-42
2022/09/05 12:39:27;;;;;;;6.30;5.00;;;29.40;35.40;;;;;;5074763;28;20411;-43
2022/09/05 12:42:06;;;;;;;6.93;6.20;;;29.30;34.50;;;;;;5056679;28;20544;-42
2022/09/05 12:44:46;;;;;;;7.90;6.83;;;29.40;35.00;;;;;;5074862;28;20406;-43
2022/09/05 12:47:18;;;;;;;7.60;6.80;;;29.40;35.10;;;;;;5074669;28;20392;-43
2022/09/05 12:50:05;;;;;;;7.97;7.17;;;29.60;35.10;;;;;;5074616;28;20395;-42
2022/09/05 12:52:32;;;;;;;7.73;7.03;;;29.80;35.10;;;;;;5074854;28;20409;-43
2022/09/05 12:55:09;;;;;;;7.20;6.60;;;30.00;35.80;;;;;;5074477;28;20411;-43
2022/09/05 12:57:40;;;;;;;6.90;6.20;;;30.30;35.50;;;;;;5074419;28;20461;-43
2022/09/05 13:00:22;;;;;;;6.57;5.97;;;30.30;32.90;;;;;;5055769;28;20407;-43
2022/09/05 13:03:08;;;;;;;5.90;5.40;;;30.40;34.00;;;;;;5074443;28;20992;-43
2022/09/05 13:06:08;;;;;;;6.83;6.23;;;30.50;33.90;;;;;;5074251;28;20399;-42
2022/09/05 13:08:48;;;;;;;7.13;6.43;;;30.60;33.70;;;;;;5038686;28;20415;-43
2022/09/05 13:11:20;;;;;;;7.20;6.50;;;30.80;33.20;;;;;;5056251;28;20433;-43
2022/09/05 13:14:04;;;;;;;6.33;5.33;;;30.80;33.60;;;;;;5074218;28;20926;-43
2022/09/05 13:16:31;;;;;;;6.77;5.90;;;30.90;32.30;;;;;;5074227;28;20803;-42
2022/09/05 13:19:12;;;;;;;6.23;5.63;;;30.90;32.10;;;;;;5073995;28;20413;-42
2022/09/05 13:21:51;;;;;;;6.10;5.60;;;30.90;32.30;;;;;;5073821;28;20532;-43
2022/09/05 13:24:32;;;;;;;7.20;6.20;;;30.90;32.60;;;;;;5074163;28;20398;-43
2022/09/05 13:27:39;;;;;;;7.73;7.03;;;30.90;32.60;;;;;;5073743;28;20456;-42
2022/09/05 13:30:10;;;;;;;7.30;6.50;;;30.90;33.00;;;;;;5054018;28;20421;-43
2022/09/05 13:32:42;;;;;;;7.67;6.97;;;30.70;32.20;;;;;;5074039;28;20754;-43
2022/09/05 13:35:31;;;;;;;7.53;6.83;;;30.50;33.30;;;;;;5039520;28;20938;-43
2022/09/05 13:38:12;;;;;;;7.73;7.03;;;30.30;33.60;;;;;;5055673;28;20818;-42
2022/09/05 13:40:47;;;;;;;8.00;7.30;;;30.10;33.30;;;;;;5073701;28;20434;-43
2022/09/05 13:43:20;;;;;;;8.70;7.90;;;29.80;33.80;;;;;;5038953;28;20478;-42
2022/09/05 13:46:18;;;;;;;8.20;7.10;;;29.60;34.20;;;;;;5055942;28;20934;-42
2022/09/05 13:49:02;;;;;;;12.50;8.13;;;29.60;34.80;;;;;;5073583;28;20387;-42
2022/09/05 13:51:31;;;;;;;9.73;6.67;;;29.50;34.30;;;;;;5073324;28;20407;-43
2022/09/05 13:54:35;;;;;;;8.67;7.10;;;29.40;34.40;;;;;;5073453;28;20395;-42
2022/09/05 13:57:26;;;;;;;8.07;7.27;;;29.40;35.00;;;;;;5073277;28;20456;-40
2022/09/05 14:00:21;;;;;;;7.07;6.47;;;29.50;35.50;;;;;;5073345;28;20398;-42
2022/09/05 14:03:35;;;;;;;8.90;8.00;;;29.60;34.60;;;;;;5037129;28;20446;-42